createdAt,value
2018-11-26T00:02:28.075Z,26.6
2018-11-26T00:05:55.958Z,26.6
2018-11-26T00:09:23.963Z,26.6
2018-11-26T00:12:51.953Z,26.6
2018-11-26T00:16:19.958Z,26.6
2018-11-26T00:19:47.862Z,26.6
2018-11-26T00:23:15.837Z,26.6
2018-11-26T00:26:43.794Z,26.6
2018-11-26T00:30:11.681Z,26.6
2018-11-26T00:33:39.552Z,26.6
2018-11-26T00:37:07.434Z,26.6
2018-11-26T00:40:35.318Z,26.6
2018-11-26T00:44:03.192Z,26.6
2018-11-26T00:47:31.078Z,26.6
2018-11-26T00:50:58.964Z,26.6
2018-11-26T00:54:26.832Z,26.6
2018-11-26T00:57:55.707Z,26.6
2018-11-26T01:01:23.593Z,26.6
2018-11-26T01:04:51.473Z,26.6
2018-11-26T01:08:19.342Z,26.6
2018-11-26T01:11:47.228Z,26.6
2018-11-26T01:15:15.114Z,26.6
2018-11-26T01:18:42.974Z,26.6
2018-11-26T01:22:10.853Z,26.6
2018-11-26T01:25:38.734Z,26.6
2018-11-26T01:29:06.600Z,26.6
2018-11-26T01:32:34.483Z,26.6
2018-11-26T01:36:02.365Z,26.6
2018-11-26T01:39:30.346Z,26.6
2018-11-26T01:42:59.202Z,26.6
2018-11-26T01:46:28.479Z,26.6
2018-11-26T01:49:56.365Z,26.6
2018-11-26T01:53:24.234Z,26.6
2018-11-26T01:56:52.115Z,26.6
2018-11-26T02:00:20.029Z,26.6
2018-11-26T02:03:47.869Z,26.6
2018-11-26T02:07:15.748Z,26.6
2018-11-26T02:10:43.630Z,26.6
2018-11-26T02:14:11.525Z,26.6
2018-11-26T02:17:39.405Z,26.6
2018-11-26T02:21:08.276Z,26.6
2018-11-26T02:24:36.150Z,26.6
2018-11-26T02:28:04.023Z,26.6
2018-11-26T02:31:31.908Z,26.6
2018-11-26T02:34:59.791Z,26.6
2018-11-26T02:38:28.654Z,26.6
2018-11-26T02:41:56.539Z,26.6
2018-11-26T02:45:24.439Z,26.6
2018-11-26T02:48:52.299Z,26.6
2018-11-26T02:52:20.187Z,26.6
2018-11-26T02:55:48.076Z,26.6
2018-11-26T02:59:16.943Z,26.6
2018-11-26T03:02:44.824Z,26.6
2018-11-26T03:06:12.710Z,26.6
2018-11-26T03:09:40.574Z,26.6
2018-11-26T03:13:09.451Z,26.6
2018-11-26T03:16:37.347Z,26.6
2018-11-26T03:20:05.223Z,26.6
2018-11-26T03:23:33.093Z,26.6
2018-11-26T03:27:00.971Z,26.6
2018-11-26T03:30:29.855Z,26.6
2018-11-26T03:33:57.730Z,26.6
2018-11-26T03:37:25.609Z,26.6
2018-11-26T03:40:53.494Z,26.6
2018-11-26T03:44:21.366Z,26.6
2018-11-26T03:47:49.264Z,26.6
2018-11-26T03:51:17.139Z,26.6
2018-11-26T03:54:45.028Z,26.6
2018-11-26T03:58:12.949Z,26.6
2018-11-26T04:01:40.838Z,26.6
2018-11-26T04:05:08.755Z,26.6
2018-11-26T04:08:36.628Z,26.6
2018-11-26T04:12:04.519Z,26.6
2018-11-26T04:15:32.394Z,26.6
2018-11-26T04:19:00.273Z,26.6
2018-11-26T04:22:28.136Z,26.6
2018-11-26T04:25:56.015Z,26.6
2018-11-26T04:29:23.899Z,26.6
2018-11-26T04:32:51.766Z,26.6
2018-11-26T04:36:20.642Z,26.6
2018-11-26T04:39:48.515Z,26.6
2018-11-26T04:43:16.379Z,26.6
2018-11-26T04:46:45.247Z,26.6
2018-11-26T04:50:13.128Z,26.6
2018-11-26T04:53:41.009Z,26.6
2018-11-26T04:57:09.873Z,26.6
2018-11-26T05:00:37.757Z,26.6
2018-11-26T05:04:05.634Z,26.6
2018-11-26T05:07:33.502Z,26.6
2018-11-26T05:11:01.389Z,26.6
2018-11-26T05:14:30.263Z,26.6
2018-11-26T05:17:58.126Z,26.6
2018-11-26T05:21:26.008Z,26.6
2018-11-26T05:24:53.888Z,26.6
2018-11-26T05:28:21.763Z,26.6
2018-11-26T05:31:49.640Z,26.6
2018-11-26T05:35:17.527Z,26.6
2018-11-26T05:38:45.409Z,26.6
2018-11-26T05:42:14.281Z,26.6
2018-11-26T05:45:42.163Z,26.6
2018-11-26T05:49:10.031Z,26.6
2018-11-26T05:52:37.915Z,26.6
2018-11-26T05:56:05.799Z,26.6
2018-11-26T05:59:33.674Z,26.6
2018-11-26T06:03:01.563Z,26.6
2018-11-26T06:06:30.446Z,26.6
2018-11-26T06:09:59.330Z,26.6
2018-11-26T06:13:27.196Z,26.6
2018-11-26T06:16:57.074Z,26.6
2018-11-26T06:20:24.966Z,26.6
2018-11-26T06:23:52.845Z,26.6
2018-11-26T06:27:20.735Z,26.6
2018-11-26T06:30:48.617Z,26.6
2018-11-26T06:34:16.484Z,26.6
2018-11-26T06:37:44.377Z,26.6
2018-11-26T06:41:13.256Z,26.6
2018-11-26T06:44:41.144Z,26.6
2018-11-26T06:48:09.005Z,26.6
2018-11-26T06:51:36.899Z,26.6
2018-11-26T06:55:04.782Z,26.6
2018-11-26T06:58:32.653Z,26.6
2018-11-26T07:02:00.554Z,26.6
2018-11-26T07:05:28.445Z,26.6
2018-11-26T07:08:56.344Z,26.6
2018-11-26T07:12:24.226Z,26.6
2018-11-26T07:15:52.110Z,26.6
2018-11-26T07:19:20.000Z,26.6
2018-11-26T07:22:47.886Z,26.6
2018-11-26T07:26:15.774Z,26.6
2018-11-26T07:29:43.647Z,26.6
2018-11-26T07:33:11.521Z,26.6
2018-11-26T07:36:39.425Z,26.6
2018-11-26T07:40:07.353Z,26.6
2018-11-26T07:43:35.217Z,26.6
2018-11-26T07:47:03.100Z,26.6
2018-11-26T07:50:31.990Z,26.6
2018-11-26T07:53:59.855Z,26.6
2018-11-26T07:57:27.746Z,26.6
2018-11-26T08:00:55.634Z,26.6
2018-11-26T08:04:23.500Z,26.6
2018-11-26T08:07:51.388Z,26.6
2018-11-26T08:11:19.278Z,26.6
2018-11-26T08:14:47.143Z,26.6
2018-11-26T08:18:15.027Z,26.6
2018-11-26T08:21:42.938Z,26.6
2018-11-26T08:25:10.807Z,26.6
2018-11-26T08:28:38.699Z,26.6
2018-11-26T08:32:07.573Z,26.6
2018-11-26T08:35:35.462Z,26.6
2018-11-26T08:39:03.345Z,26.6
2018-11-26T08:42:32.229Z,26.6
2018-11-26T08:46:00.111Z,26.6
2018-11-26T08:49:27.983Z,26.6
2018-11-26T08:52:55.878Z,26.6
2018-11-26T08:56:23.763Z,26.6
2018-11-26T08:59:51.634Z,26.6
2018-11-26T09:03:19.527Z,26.6
2018-11-26T09:06:47.408Z,26.6
2018-11-26T09:10:15.294Z,26.6
2018-11-26T09:13:43.163Z,26.6
2018-11-26T09:17:11.050Z,26.6
2018-11-26T09:20:38.936Z,26.6
2018-11-26T09:24:07.793Z,26.6
2018-11-26T09:27:35.678Z,26.6
2018-11-26T09:31:03.556Z,26.6
2018-11-26T09:34:31.429Z,26.6
2018-11-26T09:37:59.310Z,26.6
2018-11-26T09:41:27.194Z,26.6
2018-11-26T09:44:55.063Z,26.6
2018-11-26T09:48:22.951Z,26.6
2018-11-26T09:51:50.836Z,26.6
2018-11-26T09:55:18.726Z,26.6
2018-11-26T09:58:46.596Z,26.6
2018-11-26T10:02:14.479Z,26.6
2018-11-26T10:05:42.356Z,26.6
2018-11-26T10:09:10.227Z,26.6
2018-11-26T10:12:38.119Z,26.6
2018-11-26T10:16:06.004Z,26.6
2018-11-26T10:19:33.878Z,26.6
2018-11-26T10:23:01.783Z,26.6
2018-11-26T10:26:29.665Z,26.6
2018-11-26T10:29:57.545Z,26.6
2018-11-26T10:33:25.432Z,26.6
2018-11-26T10:36:53.321Z,26.6
2018-11-26T10:40:21.204Z,26.6
2018-11-26T10:43:49.087Z,26.6
2018-11-26T10:47:16.966Z,26.6
2018-11-26T10:50:44.853Z,26.6
2018-11-26T10:54:12.726Z,26.6
2018-11-26T10:57:40.603Z,26.6
2018-11-26T11:01:08.484Z,26.6
2018-11-26T11:04:37.343Z,26.6
2018-11-26T11:08:05.231Z,26.6
2018-11-26T11:11:33.111Z,26.6
2018-11-26T11:15:00.983Z,26.6
2018-11-26T11:18:28.914Z,26.6
2018-11-26T11:21:56.804Z,26.6
2018-11-26T11:25:24.682Z,26.6
2018-11-26T11:28:52.547Z,26.6
2018-11-26T11:32:20.433Z,26.6
2018-11-26T11:35:48.323Z,26.6
2018-11-26T11:39:16.191Z,26.6
2018-11-26T11:42:44.077Z,26.6
2018-11-26T11:46:11.963Z,26.6
2018-11-26T11:49:39.826Z,26.6
2018-11-26T11:53:07.711Z,26.6
2018-11-26T11:56:35.619Z,26.6
2018-11-26T12:00:03.488Z,26.6
2018-11-26T12:03:31.367Z,26.6
2018-11-26T12:06:59.930Z,26.6
2018-11-26T12:10:27.813Z,26.6
2018-11-26T12:13:55.748Z,26.6
2018-11-26T12:17:23.622Z,26.6
2018-11-26T12:20:51.507Z,26.6
2018-11-26T12:24:20.330Z,26.6
2018-11-26T12:27:48.209Z,26.6
2018-11-26T12:31:16.090Z,26.6
2018-11-26T12:34:43.956Z,26.6
2018-11-26T12:38:13.900Z,26.6
2018-11-26T12:41:41.793Z,26.6
2018-11-26T12:45:09.668Z,26.6
2018-11-26T12:48:38.537Z,26.6
2018-11-26T12:52:06.425Z,26.6
2018-11-26T12:55:35.826Z,26.6
2018-11-26T12:59:03.695Z,26.6
2018-11-26T13:02:31.579Z,26.6
2018-11-26T13:05:59.464Z,26.6
2018-11-26T13:09:27.328Z,26.6
2018-11-26T13:12:55.223Z,26.6
2018-11-26T13:16:24.082Z,26.6
2018-11-26T13:19:52.073Z,26.6
2018-11-26T13:23:19.941Z,26.6
2018-11-26T13:26:48.559Z,26.6
2018-11-26T13:30:16.437Z,26.6
2018-11-26T13:33:44.296Z,26.6
2018-11-26T13:37:13.166Z,26.6
2018-11-26T13:40:41.093Z,26.6
2018-11-26T13:44:09.140Z,26.6
2018-11-26T13:47:36.852Z,26.6
2018-11-26T13:51:04.734Z,26.6
2018-11-26T13:54:32.608Z,26.6
2018-11-26T13:58:00.488Z,26.6
2018-11-26T14:01:28.406Z,26.6
2018-11-26T14:04:57.273Z,26.6
2018-11-26T14:08:25.281Z,26.6
2018-11-26T14:11:53.162Z,26.6
2018-11-26T14:15:21.326Z,26.6
2018-11-26T14:18:49.190Z,26.6
2018-11-26T14:22:18.090Z,26.6
2018-11-26T14:25:45.987Z,26.6
2018-11-26T14:29:13.886Z,26.6
2018-11-26T14:32:41.786Z,26.6
2018-11-26T14:36:09.680Z,26.6
2018-11-26T14:39:37.567Z,26.6
2018-11-26T14:43:05.459Z,26.6
2018-11-26T14:46:34.345Z,26.6
2018-11-26T14:50:03.211Z,26.6
2018-11-26T14:53:31.102Z,26.6
2018-11-26T14:56:59.090Z,26.6
2018-11-26T15:00:26.954Z,26.6
2018-11-26T15:03:54.865Z,26.6
2018-11-26T15:07:22.743Z,26.6
2018-11-26T15:10:50.763Z,26.6
2018-11-26T15:14:19.622Z,26.6
2018-11-26T15:17:47.497Z,26.6
2018-11-26T15:21:15.394Z,26.6
2018-11-26T15:24:43.254Z,26.6
2018-11-26T15:28:11.152Z,26.6
2018-11-26T15:31:39.025Z,26.6
2018-11-26T15:35:06.899Z,26.6
2018-11-26T15:38:34.780Z,26.6
2018-11-26T15:42:02.662Z,26.6
2018-11-26T15:45:30.536Z,26.6
2018-11-26T15:48:58.415Z,26.6
2018-11-26T15:52:26.298Z,26.6
2018-11-26T15:55:54.183Z,26.6
2018-11-26T15:59:22.056Z,26.6
2018-11-26T16:02:49.938Z,26.6
2018-11-26T16:06:18.830Z,26.6
2018-11-26T16:09:46.701Z,26.6
2018-11-26T16:13:14.584Z,26.6
2018-11-26T16:16:42.510Z,26.6
2018-11-26T16:20:10.452Z,12.9
2018-11-26T16:23:38.335Z,5.1
2018-11-26T16:27:06.215Z,6.8
2018-11-26T16:30:34.105Z,3.4
2018-11-26T16:34:01.977Z,6.5
2018-11-26T16:37:29.856Z,11.5
2018-11-26T16:40:57.737Z,4.8
2018-11-26T16:44:25.602Z,8.7
2018-11-26T16:47:53.501Z,4.9
2018-11-26T16:51:21.381Z,11.4
2018-11-26T16:54:49.246Z,11.4
2018-11-26T16:58:17.132Z,11.4
2018-11-26T17:01:46.007Z,11.4
2018-11-26T17:05:13.880Z,11.4
2018-11-26T17:08:41.762Z,11.4
2018-11-26T17:12:09.651Z,11.4
2018-11-26T17:15:37.535Z,11.4
2018-11-26T17:19:05.403Z,11.4
2018-11-26T17:22:34.422Z,11.4
2018-11-26T17:26:03.309Z,11.4
2018-11-26T17:29:31.176Z,11.4
2018-11-26T17:32:59.065Z,11.4
2018-11-26T17:36:26.947Z,11.4
2018-11-26T17:39:54.814Z,11.4
2018-11-26T17:43:22.699Z,11.4
2018-11-26T17:46:51.588Z,11.4
2018-11-26T17:50:19.469Z,11.4
2018-11-26T17:53:47.379Z,11.4
2018-11-26T17:57:15.274Z,11.4
2018-11-26T18:00:43.167Z,11.4
2018-11-26T18:04:11.066Z,11.4
2018-11-26T18:07:38.971Z,11.4
2018-11-26T18:11:06.848Z,11.4
2018-11-26T18:14:34.753Z,11.4
2018-11-26T18:18:02.686Z,11.4
2018-11-26T18:21:30.591Z,11.4
2018-11-26T18:24:58.453Z,11.4
2018-11-26T18:28:26.338Z,11.4
2018-11-26T18:31:54.224Z,11.4
2018-11-26T18:35:22.104Z,11.4
2018-11-26T18:38:51.010Z,11.4
2018-11-26T18:42:19.885Z,11.4
2018-11-26T18:45:48.503Z,11.4
2018-11-26T18:49:17.387Z,11.4
2018-11-26T18:52:45.278Z,11.4
2018-11-26T18:56:14.255Z,11.4
2018-11-26T18:59:42.132Z,11.4
2018-11-26T19:03:10.030Z,11.4
2018-11-26T19:06:38.724Z,11.4
2018-11-26T19:10:07.421Z,11.4
2018-11-26T19:13:36.289Z,11.4
2018-11-26T19:17:04.227Z,11.4
2018-11-26T19:20:32.111Z,11.4
2018-11-26T19:23:59.987Z,11.4
2018-11-26T19:27:27.868Z,11.4
2018-11-26T19:30:55.763Z,11.4
2018-11-26T19:34:23.629Z,11.4
2018-11-26T19:37:51.518Z,11.4
2018-11-26T19:41:19.410Z,11.4
2018-11-26T19:44:47.271Z,11.4
2018-11-26T19:48:15.877Z,11.4
2018-11-26T19:51:44.996Z,11.4
2018-11-26T19:55:15.601Z,11.4
2018-11-26T19:58:43.472Z,11.4
2018-11-26T20:02:11.355Z,11.4
2018-11-26T20:05:39.239Z,11.4
2018-11-26T20:09:07.104Z,11.4
2018-11-26T20:12:34.995Z,11.4
2018-11-26T20:16:03.867Z,11.4
2018-11-26T20:19:32.050Z,11.4
2018-11-26T20:23:00.179Z,11.4
2018-11-26T20:26:28.069Z,11.4
2018-11-26T20:29:55.942Z,11.4
2018-11-26T20:33:23.856Z,11.4
2018-11-26T20:36:51.752Z,11.4
2018-11-26T20:40:19.624Z,11.4
2018-11-26T20:43:48.512Z,11.4
2018-11-26T20:47:16.404Z,11.4
2018-11-26T20:50:44.371Z,11.4
2018-11-26T20:54:12.265Z,11.4
2018-11-26T20:57:40.176Z,11.4
2018-11-26T21:01:08.071Z,11.4
2018-11-26T21:04:35.938Z,11.4
2018-11-26T21:08:03.825Z,11.4
2018-11-26T21:11:31.718Z,11.4
2018-11-26T21:15:00.583Z,11.4
2018-11-26T21:18:28.451Z,11.4
2018-11-26T21:21:56.362Z,11.4
2018-11-26T21:25:24.239Z,11.4
2018-11-26T21:28:52.111Z,11.4
2018-11-26T21:32:20.013Z,11.4
2018-11-26T21:35:47.896Z,11.4
2018-11-26T21:39:15.779Z,11.4
2018-11-26T21:42:43.670Z,11.4
2018-11-26T21:46:12.106Z,11.4
2018-11-26T21:49:39.430Z,11.4
2018-11-26T21:53:07.352Z,11.4
2018-11-26T21:56:35.232Z,11.4
2018-11-26T22:00:03.098Z,11.4
2018-11-26T22:03:33.956Z,11.4
2018-11-26T22:07:01.845Z,11.4
2018-11-26T22:10:29.777Z,11.4
2018-11-26T22:13:58.642Z,11.4
2018-11-26T22:17:26.533Z,11.4
2018-11-26T22:20:54.427Z,11.4
2018-11-26T22:24:23.293Z,11.4
2018-11-26T22:27:51.169Z,11.4
2018-11-26T22:31:19.053Z,11.4
2018-11-26T22:34:46.916Z,11.4
2018-11-26T22:38:14.801Z,11.4
2018-11-26T22:41:42.684Z,11.4
2018-11-26T22:45:11.542Z,11.4
2018-11-26T22:48:39.421Z,11.4
2018-11-26T22:52:07.309Z,11.4
2018-11-26T22:55:35.191Z,11.4
2018-11-26T22:59:03.057Z,11.4
2018-11-26T23:02:30.946Z,11.4
2018-11-26T23:05:58.828Z,11.4
2018-11-26T23:09:26.692Z,11.4
2018-11-26T23:12:54.577Z,11.4
2018-11-26T23:16:22.456Z,11.4
2018-11-26T23:19:50.320Z,11.4
2018-11-26T23:23:18.204Z,11.4
2018-11-26T23:26:46.087Z,11.4
2018-11-26T23:30:13.952Z,11.4
2018-11-26T23:33:41.834Z,11.4
2018-11-26T23:37:09.724Z,11.4
2018-11-26T23:40:38.578Z,11.4
2018-11-26T23:44:06.461Z,11.4
2018-11-26T23:47:35.331Z,11.4
2018-11-26T23:51:03.215Z,11.4
2018-11-26T23:54:31.073Z,11.4
2018-11-26T23:57:58.957Z,11.4
